createdAt,value
2023-01-25T00:01:27.802Z,20.46
2023-01-25T00:03:54.255Z,20.45
2023-01-25T00:06:20.606Z,20.46
2023-01-25T00:08:50.216Z,20.44
2023-01-25T00:11:17.103Z,20.44
2023-01-25T00:13:43.574Z,20.44
2023-01-25T00:16:09.963Z,20.45
2023-01-25T00:18:36.322Z,20.45
2023-01-25T00:21:15.211Z,20.46
2023-01-25T00:23:41.544Z,20.47
2023-01-25T00:26:07.899Z,20.47
2023-01-25T00:28:34.221Z,20.48
2023-01-25T00:31:01.051Z,20.47
2023-01-25T00:33:27.323Z,20.46
2023-01-25T00:35:56.453Z,20.47
2023-01-25T00:38:27.471Z,20.45
2023-01-25T00:40:53.835Z,20.45
2023-01-25T00:43:20.154Z,20.44
2023-01-25T00:45:46.585Z,20.44
2023-01-25T00:48:12.923Z,20.42
2023-01-25T00:50:39.328Z,20.41
2023-01-25T00:53:05.667Z,20.41
2023-01-25T00:55:32.045Z,20.42
2023-01-25T00:57:58.374Z,20.43
2023-01-25T01:00:24.846Z,20.44
2023-01-25T01:02:51.201Z,20.44
2023-01-25T01:05:17.621Z,20.45
2023-01-25T01:07:44.002Z,20.46
2023-01-25T01:10:12.078Z,20.45
2023-01-25T01:12:38.408Z,20.45
2023-01-25T01:15:07.577Z,20.44
2023-01-25T01:17:34.584Z,20.44
2023-01-25T01:20:00.909Z,20.44
2023-01-25T01:22:27.267Z,20.43
2023-01-25T01:24:53.617Z,20.42
2023-01-25T01:27:19.972Z,20.41
2023-01-25T01:29:46.310Z,20.41
2023-01-25T01:32:12.868Z,20.40
2023-01-25T01:34:39.284Z,20.40
2023-01-25T01:37:05.612Z,20.40
2023-01-25T01:39:31.975Z,20.41
2023-01-25T01:41:58.311Z,20.42
2023-01-25T01:44:43.453Z,20.43
2023-01-25T01:47:12.022Z,20.44
2023-01-25T01:49:38.355Z,20.43
2023-01-25T01:52:12.626Z,20.43
2023-01-25T01:54:44.063Z,20.43
2023-01-25T01:57:32.315Z,20.43
2023-01-25T02:00:00.157Z,20.42
2023-01-25T02:02:26.592Z,20.42
2023-01-25T02:04:53.383Z,20.41
2023-01-25T02:07:21.464Z,20.39
2023-01-25T02:09:48.112Z,20.39
2023-01-25T02:12:14.451Z,20.38
2023-01-25T02:14:41.679Z,20.39
2023-01-25T02:17:09.811Z,20.38
2023-01-25T02:20:08.532Z,20.39
2023-01-25T02:22:44.371Z,20.40
2023-01-25T02:25:11.007Z,20.41
2023-01-25T02:27:38.663Z,20.42
2023-01-25T02:30:05.262Z,20.43
2023-01-25T02:32:31.961Z,20.43
2023-01-25T02:34:58.369Z,20.40
2023-01-25T02:37:24.705Z,20.40
2023-01-25T02:39:51.249Z,20.41
2023-01-25T02:42:17.612Z,20.40
2023-01-25T02:44:44.334Z,20.39
2023-01-25T02:47:10.682Z,20.38
2023-01-25T02:49:38.605Z,20.37
2023-01-25T02:52:07.133Z,20.36
2023-01-25T02:54:33.535Z,20.35
2023-01-25T02:57:03.333Z,20.36
2023-01-25T02:59:38.816Z,20.36
2023-01-25T03:02:05.217Z,20.37
2023-01-25T03:04:31.660Z,20.38
2023-01-25T03:06:58.457Z,20.39
2023-01-25T03:09:27.158Z,20.39
2023-01-25T03:11:53.553Z,20.39
2023-01-25T03:14:22.121Z,20.40
2023-01-25T03:16:49.238Z,20.39
2023-01-25T03:19:18.149Z,20.39
2023-01-25T03:21:44.539Z,20.38
2023-01-25T03:24:11.348Z,20.38
2023-01-25T03:27:01.863Z,20.36
2023-01-25T03:29:36.353Z,20.35
2023-01-25T03:32:06.062Z,20.35
2023-01-25T03:34:32.495Z,20.33
2023-01-25T03:36:59.678Z,20.33
2023-01-25T03:39:26.065Z,20.31
2023-01-25T03:41:52.460Z,20.30
2023-01-25T03:44:19.000Z,20.31
2023-01-25T03:46:46.630Z,20.30
2023-01-25T03:49:13.153Z,20.33
2023-01-25T03:51:39.793Z,20.34
2023-01-25T03:54:08.335Z,20.36
2023-01-25T03:56:35.924Z,20.37
2023-01-25T03:59:10.210Z,20.38
2023-01-25T04:01:36.761Z,20.40
2023-01-25T04:04:03.099Z,20.41
2023-01-25T04:06:29.568Z,20.42
2023-01-25T04:08:56.398Z,20.42
2023-01-25T04:11:24.958Z,20.42
2023-01-25T04:13:51.375Z,20.43
2023-01-25T04:16:20.272Z,20.43
2023-01-25T04:19:00.994Z,20.42
2023-01-25T04:21:29.159Z,20.42
2023-01-25T04:23:55.781Z,20.42
2023-01-25T04:26:22.235Z,20.42
2023-01-25T04:28:54.074Z,20.42
2023-01-25T04:31:20.745Z,20.42
2023-01-25T04:33:49.492Z,20.42
2023-01-25T04:36:18.494Z,20.42
2023-01-25T04:38:44.866Z,20.43
2023-01-25T04:41:11.673Z,20.43
2023-01-25T04:43:38.281Z,20.43
2023-01-25T04:46:09.228Z,20.43
2023-01-25T04:48:35.609Z,20.42
2023-01-25T04:51:04.933Z,20.41
2023-01-25T04:53:32.635Z,20.42
2023-01-25T04:56:00.966Z,20.42
2023-01-25T04:58:31.280Z,20.42
2023-01-25T05:01:01.542Z,20.42
2023-01-25T05:03:28.301Z,20.42
2023-01-25T05:05:54.665Z,20.44
2023-01-25T05:08:23.738Z,20.45
2023-01-25T05:10:52.700Z,20.45
2023-01-25T05:13:37.717Z,20.46
2023-01-25T05:16:13.303Z,20.45
2023-01-25T05:18:48.490Z,20.46
2023-01-25T05:21:38.611Z,20.47
2023-01-25T05:24:05.263Z,20.45
2023-01-25T05:26:51.851Z,20.46
2023-01-25T05:29:18.305Z,20.44
2023-01-25T05:31:56.292Z,20.44
2023-01-25T05:34:22.755Z,20.44
2023-01-25T05:36:49.280Z,20.44
2023-01-25T05:39:16.246Z,20.45
2023-01-25T05:41:44.224Z,20.45
2023-01-25T05:44:11.368Z,20.45
2023-01-25T05:46:40.181Z,20.46
2023-01-25T05:49:06.879Z,20.46
2023-01-25T05:51:33.568Z,20.45
2023-01-25T05:54:01.383Z,20.46
2023-01-25T05:56:28.027Z,20.45
2023-01-25T05:58:54.662Z,20.44
2023-01-25T06:01:21.383Z,20.44
2023-01-25T06:03:52.459Z,20.44
2023-01-25T06:06:18.872Z,20.44
2023-01-25T06:08:45.712Z,20.46
2023-01-25T06:11:13.144Z,20.47
2023-01-25T06:13:43.176Z,20.46
2023-01-25T06:16:09.607Z,20.54
2023-01-25T06:18:56.944Z,19.80
2023-01-25T06:21:44.740Z,19.34
2023-01-25T06:24:11.181Z,19.30
2023-01-25T06:26:37.594Z,19.93
2023-01-25T06:29:34.939Z,20.27
2023-01-25T06:32:02.518Z,20.46
2023-01-25T06:34:29.046Z,20.57
2023-01-25T06:36:55.547Z,20.64
2023-01-25T06:39:21.880Z,20.70
2023-01-25T06:41:48.199Z,20.71
2023-01-25T06:44:14.533Z,20.63
2023-01-25T06:46:41.052Z,20.59
2023-01-25T06:49:07.398Z,20.52
2023-01-25T06:51:33.720Z,19.47
2023-01-25T06:57:18.072Z,19.57
2023-01-25T06:59:44.403Z,19.01
2023-01-25T07:02:14.280Z,18.99
2023-01-25T07:04:40.627Z,19.58
2023-01-25T07:07:09.777Z,19.95
2023-01-25T07:09:36.136Z,20.16
2023-01-25T07:12:04.615Z,20.37
2023-01-25T07:14:31.183Z,20.81
2023-01-25T07:16:57.560Z,20.95
2023-01-25T07:19:23.916Z,21.04
2023-01-25T07:21:50.286Z,21.09
2023-01-25T07:24:17.236Z,21.06
2023-01-25T07:26:43.634Z,21.06
2023-01-25T07:29:13.815Z,21.10
2023-01-25T07:31:40.210Z,21.10
2023-01-25T07:34:07.122Z,21.13
2023-01-25T07:36:33.649Z,21.16
2023-01-25T07:39:00.007Z,21.25
2023-01-25T07:41:26.382Z,21.25
2023-01-25T07:43:52.719Z,21.20
2023-01-25T07:46:29.212Z,21.26
2023-01-25T07:48:55.768Z,21.31
2023-01-25T07:51:22.847Z,21.29
2023-01-25T07:53:52.161Z,21.18
2023-01-25T07:56:19.311Z,21.17
2023-01-25T07:58:45.776Z,21.19
2023-01-25T08:01:16.143Z,21.05
2023-01-25T08:03:43.953Z,21.18
2023-01-25T08:06:10.980Z,21.25
2023-01-25T08:08:38.748Z,21.21
2023-01-25T08:11:09.242Z,21.28
2023-01-25T08:13:35.592Z,21.30
2023-01-25T08:16:01.995Z,21.39
2023-01-25T08:18:28.438Z,21.45
2023-01-25T08:20:57.315Z,21.49
2023-01-25T08:23:24.827Z,21.20
2023-01-25T08:25:51.207Z,21.04
2023-01-25T08:28:17.576Z,20.98
2023-01-25T08:30:56.497Z,20.93
2023-01-25T08:33:23.789Z,20.91
2023-01-25T08:35:59.165Z,20.89
2023-01-25T08:38:25.503Z,20.87
2023-01-25T08:40:51.953Z,20.85
2023-01-25T08:43:18.409Z,20.85
2023-01-25T08:45:44.970Z,20.83
2023-01-25T08:48:15.439Z,20.84
2023-01-25T08:50:47.735Z,20.85
2023-01-25T08:53:14.084Z,20.84
2023-01-25T08:55:42.818Z,20.88
2023-01-25T08:58:13.149Z,20.89
2023-01-25T09:00:39.585Z,20.89
2023-01-25T09:03:06.635Z,20.88
2023-01-25T09:05:39.138Z,20.86
2023-01-25T09:08:06.905Z,20.84
2023-01-25T09:10:37.576Z,20.84
2023-01-25T09:13:03.915Z,20.83
2023-01-25T09:15:30.246Z,20.85
2023-01-25T09:17:56.649Z,20.84
2023-01-25T09:20:23.061Z,20.84
2023-01-25T09:22:49.389Z,20.84
2023-01-25T09:25:15.763Z,20.84
2023-01-25T09:27:42.108Z,20.84
2023-01-25T09:30:13.449Z,20.92
2023-01-25T09:32:43.388Z,21.20
2023-01-25T09:35:09.789Z,21.21
2023-01-25T09:37:36.165Z,21.25
2023-01-25T09:40:03.892Z,21.24
2023-01-25T09:42:32.609Z,21.27
2023-01-25T09:45:12.695Z,21.27
2023-01-25T09:47:49.920Z,21.27
2023-01-25T09:50:33.151Z,21.33
2023-01-25T09:53:04.643Z,21.20
2023-01-25T09:55:30.985Z,21.20
2023-01-25T09:58:00.172Z,21.22
2023-01-25T10:00:32.140Z,21.23
2023-01-25T10:03:07.643Z,21.21
2023-01-25T10:05:37.133Z,21.24
2023-01-25T10:08:08.483Z,21.19
2023-01-25T10:10:42.132Z,21.11
2023-01-25T10:13:11.505Z,21.11
2023-01-25T10:15:39.484Z,21.21
2023-01-25T10:18:21.042Z,21.27
2023-01-25T10:20:49.390Z,21.25
2023-01-25T10:23:24.808Z,21.32
2023-01-25T10:25:56.869Z,21.25
2023-01-25T10:28:25.867Z,21.29
2023-01-25T10:30:56.930Z,21.20
2023-01-25T10:33:23.331Z,21.19
2023-01-25T10:35:49.823Z,21.21
2023-01-25T10:38:20.595Z,21.31
2023-01-25T10:40:48.703Z,21.30
2023-01-25T10:43:18.567Z,21.32
2023-01-25T10:45:44.908Z,21.31
2023-01-25T10:48:12.581Z,21.31
2023-01-25T10:50:38.910Z,21.45
2023-01-25T10:53:05.299Z,21.42
2023-01-25T10:55:31.645Z,21.44
2023-01-25T10:57:58.064Z,21.44
2023-01-25T11:00:29.239Z,21.44
2023-01-25T11:02:56.701Z,21.38
2023-01-25T11:05:36.038Z,21.28
2023-01-25T11:08:21.165Z,21.34
2023-01-25T11:10:47.487Z,21.38
2023-01-25T11:13:13.757Z,21.43
2023-01-25T11:15:40.560Z,21.51
2023-01-25T11:18:07.290Z,21.58
2023-01-25T11:20:33.676Z,21.67
2023-01-25T11:23:00.019Z,21.66
2023-01-25T11:25:27.383Z,21.66
2023-01-25T11:28:09.523Z,21.64
2023-01-25T11:30:35.886Z,21.41
2023-01-25T11:33:02.228Z,21.38
2023-01-25T11:35:31.879Z,21.36
2023-01-25T11:38:08.622Z,21.40
2023-01-25T11:40:38.522Z,21.42
2023-01-25T11:43:23.858Z,21.45
2023-01-25T11:45:53.189Z,21.52
2023-01-25T11:48:19.483Z,21.34
2023-01-25T11:50:47.358Z,21.29
2023-01-25T11:53:23.873Z,21.25
2023-01-25T11:55:54.464Z,21.25
2023-01-25T11:58:36.284Z,21.40
2023-01-25T12:01:11.128Z,21.37
2023-01-25T12:03:37.437Z,21.42
2023-01-25T12:06:17.770Z,21.42
2023-01-25T12:09:02.621Z,21.44
2023-01-25T12:11:35.060Z,21.42
2023-01-25T12:14:05.520Z,21.40
2023-01-25T12:16:44.702Z,21.40
2023-01-25T12:19:29.847Z,21.40
2023-01-25T12:22:14.713Z,21.45
2023-01-25T12:24:52.142Z,21.43
2023-01-25T12:27:44.858Z,21.47
2023-01-25T12:30:11.574Z,21.48
2023-01-25T12:32:39.527Z,21.49
2023-01-25T12:35:24.756Z,21.48
2023-01-25T12:37:51.270Z,21.45
2023-01-25T12:40:18.695Z,21.39
2023-01-25T12:42:47.821Z,21.41
2023-01-25T12:45:18.793Z,21.28
2023-01-25T12:47:49.600Z,21.39
2023-01-25T12:50:15.846Z,21.31
2023-01-25T12:53:02.411Z,21.38
2023-01-25T12:55:28.768Z,21.45
2023-01-25T12:58:11.478Z,21.44
2023-01-25T13:00:51.952Z,21.48
2023-01-25T13:03:33.701Z,21.45
2023-01-25T13:06:03.008Z,21.58
2023-01-25T13:08:37.511Z,21.44
2023-01-25T13:11:07.963Z,21.32
2023-01-25T13:13:34.699Z,21.40
2023-01-25T13:16:21.026Z,21.45
2023-01-25T13:18:47.384Z,21.43
2023-01-25T13:21:33.570Z,21.43
2023-01-25T13:24:18.810Z,21.48
2023-01-25T13:26:54.112Z,21.47
2023-01-25T13:29:35.673Z,21.56
2023-01-25T13:32:02.458Z,21.54
2023-01-25T13:34:35.664Z,21.48
2023-01-25T13:37:20.770Z,21.43
2023-01-25T13:39:56.521Z,21.44
2023-01-25T13:42:23.827Z,21.42
2023-01-25T13:44:51.871Z,21.40
2023-01-25T13:47:44.762Z,21.41
2023-01-25T13:50:14.115Z,21.34
2023-01-25T13:52:41.663Z,21.32
2023-01-25T13:55:16.617Z,21.37
2023-01-25T13:57:42.993Z,21.30
2023-01-25T14:00:14.537Z,21.17
2023-01-25T14:02:41.951Z,21.17
2023-01-25T14:05:24.514Z,21.20
2023-01-25T14:07:51.387Z,21.23
2023-01-25T14:10:23.588Z,21.21
2023-01-25T14:12:50.637Z,21.22
2023-01-25T14:15:21.429Z,21.20
2023-01-25T14:18:03.906Z,21.21
2023-01-25T14:20:30.307Z,21.19
2023-01-25T14:22:56.666Z,21.15
2023-01-25T14:25:25.449Z,21.03
2023-01-25T14:27:53.129Z,21.13
2023-01-25T14:30:20.889Z,21.20
2023-01-25T14:32:47.419Z,21.18
2023-01-25T14:35:36.058Z,21.20
2023-01-25T14:38:23.287Z,21.30
2023-01-25T14:40:49.781Z,21.28
2023-01-25T14:43:16.476Z,21.16
2023-01-25T14:45:42.836Z,21.14
2023-01-25T14:48:28.096Z,21.19
2023-01-25T14:51:01.591Z,21.18
2023-01-25T14:53:27.937Z,21.16
2023-01-25T14:55:54.258Z,21.15
2023-01-25T14:58:21.480Z,21.15
2023-01-25T15:00:54.034Z,21.13
2023-01-25T15:03:22.409Z,21.10
2023-01-25T15:05:48.741Z,21.11
2023-01-25T15:08:15.922Z,21.11
2023-01-25T15:10:52.040Z,21.19
2023-01-25T15:13:22.401Z,21.37
2023-01-25T15:15:57.698Z,21.45
2023-01-25T15:18:40.472Z,21.57
2023-01-25T15:21:13.438Z,21.64
2023-01-25T15:23:46.096Z,21.64
2023-01-25T15:26:36.481Z,21.71
2023-01-25T15:29:15.136Z,21.62
2023-01-25T15:31:41.674Z,21.66
2023-01-25T15:34:13.372Z,21.82
2023-01-25T15:36:39.773Z,22.02
2023-01-25T15:39:06.875Z,21.99
2023-01-25T15:41:33.244Z,21.73
2023-01-25T15:44:01.332Z,22.05
2023-01-25T15:46:27.968Z,21.83
2023-01-25T15:48:54.284Z,22.22
2023-01-25T15:51:20.665Z,22.35
2023-01-25T15:53:47.162Z,22.42
2023-01-25T15:56:14.808Z,22.27
2023-01-25T15:58:41.983Z,22.23
2023-01-25T16:01:08.381Z,21.98
2023-01-25T16:03:34.727Z,21.80
2023-01-25T16:06:01.793Z,21.73
2023-01-25T16:08:28.193Z,21.73
2023-01-25T16:10:54.529Z,21.68
2023-01-25T16:13:22.092Z,21.63
2023-01-25T16:15:48.922Z,21.64
2023-01-25T16:18:15.260Z,21.64
2023-01-25T16:20:41.653Z,21.65
2023-01-25T16:23:08.429Z,21.61
2023-01-25T16:25:34.786Z,21.59
2023-01-25T16:28:01.120Z,21.60
2023-01-25T16:30:29.208Z,21.70
2023-01-25T16:32:55.608Z,21.72
2023-01-25T16:35:21.931Z,21.77
2023-01-25T16:37:48.272Z,21.68
2023-01-25T16:40:24.581Z,21.65
2023-01-25T16:42:51.032Z,21.63
2023-01-25T16:45:19.276Z,21.62
2023-01-25T16:47:46.604Z,21.68
2023-01-25T16:50:13.649Z,21.63
2023-01-25T16:52:43.443Z,21.54
2023-01-25T16:55:11.078Z,21.44
2023-01-25T16:57:37.882Z,21.40
2023-01-25T17:00:05.270Z,21.40
2023-01-25T17:02:31.596Z,21.39
2023-01-25T17:04:57.948Z,21.32
2023-01-25T17:07:24.271Z,21.44
2023-01-25T17:09:50.608Z,21.43
2023-01-25T17:12:16.927Z,21.49
2023-01-25T17:14:43.350Z,21.49
2023-01-25T17:17:09.674Z,21.47
2023-01-25T17:19:36.025Z,21.57
2023-01-25T17:22:03.277Z,21.47
2023-01-25T17:24:29.613Z,21.34
2023-01-25T17:26:56.036Z,21.40
2023-01-25T17:29:22.634Z,21.33
2023-01-25T17:31:49.022Z,21.32
2023-01-25T17:34:18.081Z,21.30
2023-01-25T17:36:44.469Z,21.31
2023-01-25T17:39:11.204Z,21.32
2023-01-25T17:41:37.527Z,21.33
2023-01-25T17:44:03.863Z,21.31
2023-01-25T17:46:32.984Z,21.33
2023-01-25T17:49:01.906Z,21.36
2023-01-25T17:51:28.303Z,21.39
2023-01-25T17:53:54.677Z,21.37
2023-01-25T17:56:21.043Z,21.32
2023-01-25T17:58:47.403Z,21.27
2023-01-25T18:01:17.936Z,21.28
2023-01-25T18:03:44.507Z,21.21
2023-01-25T18:06:11.267Z,21.19
2023-01-25T18:08:40.845Z,21.17
2023-01-25T18:11:10.725Z,21.16
2023-01-25T18:13:40.741Z,21.18
2023-01-25T18:16:07.511Z,21.19
2023-01-25T18:18:33.866Z,21.17
2023-01-25T18:21:13.081Z,21.19
2023-01-25T18:23:39.465Z,21.20
2023-01-25T18:26:06.457Z,21.18
2023-01-25T18:28:32.787Z,21.19
2023-01-25T18:30:59.693Z,21.16
2023-01-25T18:33:26.282Z,21.15
2023-01-25T18:35:53.896Z,21.13
2023-01-25T18:38:20.321Z,21.12
2023-01-25T18:40:46.865Z,21.10
2023-01-25T18:43:17.016Z,21.10
2023-01-25T18:45:43.552Z,21.10
2023-01-25T18:48:13.116Z,21.11
2023-01-25T18:50:39.975Z,21.11
2023-01-25T18:53:07.192Z,21.14
2023-01-25T18:55:33.521Z,21.16
2023-01-25T18:58:04.022Z,21.14
2023-01-25T19:00:33.629Z,21.13
2023-01-25T19:03:00.252Z,21.13
2023-01-25T19:05:26.657Z,21.13
2023-01-25T19:07:52.980Z,21.10
2023-01-25T19:10:19.329Z,21.08
2023-01-25T19:12:45.667Z,21.07
2023-01-25T19:15:12.099Z,21.05
2023-01-25T19:17:38.570Z,21.05
2023-01-25T19:20:05.251Z,21.05
2023-01-25T19:22:31.634Z,21.06
2023-01-25T19:24:57.970Z,21.07
2023-01-25T19:27:24.538Z,21.10
2023-01-25T19:29:51.455Z,21.10
2023-01-25T19:32:17.783Z,21.09
2023-01-25T19:34:44.109Z,20.22
2023-01-25T19:37:10.437Z,20.52
2023-01-25T19:39:37.018Z,20.87
2023-01-25T19:42:03.376Z,20.98
2023-01-25T19:44:29.706Z,21.04
2023-01-25T19:46:56.028Z,21.10
2023-01-25T19:49:22.407Z,21.06
2023-01-25T19:51:52.867Z,21.06
2023-01-25T19:54:19.566Z,21.06
2023-01-25T19:56:46.479Z,21.06
2023-01-25T19:59:15.551Z,21.05
2023-01-25T20:01:43.894Z,21.11
2023-01-25T20:04:13.891Z,21.12
2023-01-25T20:06:40.257Z,21.11
2023-01-25T20:09:06.580Z,21.11
2023-01-25T20:11:32.950Z,21.09
2023-01-25T20:14:00.000Z,21.01
2023-01-25T20:16:27.262Z,21.05
2023-01-25T20:18:53.621Z,21.06
2023-01-25T20:21:20.535Z,21.04
2023-01-25T20:23:47.593Z,21.01
2023-01-25T20:26:17.721Z,21.01
2023-01-25T20:28:44.400Z,21.01
2023-01-25T20:31:26.152Z,21.02
2023-01-25T20:33:53.107Z,21.00
2023-01-25T20:36:19.445Z,20.92
2023-01-25T20:38:45.927Z,20.97
2023-01-25T20:41:15.957Z,21.00
2023-01-25T20:43:46.015Z,21.01
2023-01-25T20:46:12.390Z,21.01
2023-01-25T20:48:38.729Z,21.01
2023-01-25T20:51:05.779Z,21.02
2023-01-25T20:53:33.087Z,21.02
2023-01-25T20:55:59.992Z,20.99
2023-01-25T20:58:26.637Z,20.98
2023-01-25T21:00:52.996Z,20.98
2023-01-25T21:03:19.382Z,20.96
2023-01-25T21:05:49.419Z,20.97
2023-01-25T21:08:15.740Z,20.98
2023-01-25T21:10:46.430Z,20.97
2023-01-25T21:13:12.758Z,20.96
2023-01-25T21:15:39.147Z,20.97
2023-01-25T21:18:05.516Z,20.97
2023-01-25T21:20:31.844Z,20.97
2023-01-25T21:22:58.216Z,20.96
2023-01-25T21:25:24.533Z,20.95
2023-01-25T21:27:50.896Z,20.93
2023-01-25T21:30:17.347Z,20.93
2023-01-25T21:32:44.111Z,20.92
2023-01-25T21:35:10.714Z,20.91
2023-01-25T21:37:37.190Z,20.92
2023-01-25T21:40:03.516Z,20.91
2023-01-25T21:42:32.205Z,20.91
2023-01-25T21:45:17.520Z,20.90
2023-01-25T21:47:43.852Z,20.90
2023-01-25T21:50:29.206Z,20.88
2023-01-25T21:52:55.572Z,20.87
2023-01-25T21:55:21.906Z,20.88
2023-01-25T21:57:48.916Z,20.87
2023-01-25T22:00:16.168Z,20.85
2023-01-25T22:02:42.965Z,20.84
2023-01-25T22:05:09.332Z,20.85
2023-01-25T22:07:35.673Z,20.85
2023-01-25T22:10:02.008Z,20.85
2023-01-25T22:12:28.347Z,20.83
2023-01-25T22:14:54.723Z,20.87
2023-01-25T22:17:22.510Z,20.90
2023-01-25T22:19:48.859Z,20.91
2023-01-25T22:22:15.232Z,20.91
2023-01-25T22:24:41.576Z,20.90
2023-01-25T22:27:07.845Z,20.87
2023-01-25T22:29:34.193Z,20.86
2023-01-25T22:32:00.542Z,20.85
2023-01-25T22:34:26.881Z,20.84
2023-01-25T22:36:53.297Z,20.81
2023-01-25T22:39:19.623Z,20.83
2023-01-25T22:41:45.955Z,20.83
2023-01-25T22:44:14.416Z,20.82
2023-01-25T22:46:40.791Z,20.81
2023-01-25T22:49:07.617Z,20.81
2023-01-25T22:51:33.941Z,20.81
2023-01-25T22:54:00.288Z,20.82
2023-01-25T22:56:31.727Z,20.82
2023-01-25T22:58:58.186Z,20.82
2023-01-25T23:01:25.267Z,20.81
2023-01-25T23:03:51.592Z,20.81
2023-01-25T23:06:19.003Z,20.81
2023-01-25T23:08:45.332Z,20.80
2023-01-25T23:11:12.627Z,20.78
2023-01-25T23:13:39.871Z,20.79
2023-01-25T23:16:06.911Z,20.77
2023-01-25T23:18:51.450Z,20.78
2023-01-25T23:21:18.523Z,20.76
2023-01-25T23:23:44.878Z,20.76
2023-01-25T23:26:11.206Z,20.76
2023-01-25T23:28:37.611Z,20.76
2023-01-25T23:31:17.186Z,20.76
2023-01-25T23:33:59.505Z,20.77
2023-01-25T23:36:26.507Z,20.78
2023-01-25T23:38:52.823Z,20.77
2023-01-25T23:41:19.371Z,20.77
2023-01-25T23:43:45.701Z,20.77
2023-01-25T23:46:14.187Z,20.76
2023-01-25T23:48:40.917Z,20.75
2023-01-25T23:51:07.263Z,20.75
2023-01-25T23:53:33.607Z,20.74
2023-01-25T23:56:05.906Z,20.74
2023-01-25T23:58:32.818Z,20.73
